createdAt,value
2023-03-26T00:02:38.429Z,994.7
2023-03-26T00:07:44.510Z,994.8
2023-03-26T00:12:50.594Z,994.9
2023-03-26T00:17:56.703Z,994.9
2023-03-26T00:23:02.814Z,994.8
2023-03-26T00:28:07.921Z,994.9
2023-03-26T00:33:14.070Z,994.9
2023-03-26T00:38:20.192Z,994.8
2023-03-26T00:43:26.213Z,994.9
2023-03-26T00:48:32.306Z,994.8
2023-03-26T00:53:37.412Z,994.9
2023-03-26T00:58:42.541Z,994.8
2023-03-26T01:03:48.629Z,994.7
2023-03-26T01:08:53.752Z,994.7
2023-03-26T01:13:58.940Z,994.7
2023-03-26T01:19:05.050Z,994.8
2023-03-26T01:24:11.157Z,994.8
2023-03-26T01:29:17.140Z,994.7
2023-03-26T01:34:23.238Z,994.7
2023-03-26T01:39:29.428Z,994.7
2023-03-26T01:44:35.426Z,994.8
2023-03-26T01:49:41.609Z,994.8
2023-03-26T01:54:47.660Z,994.8
2023-03-26T01:59:53.723Z,994.8
2023-03-26T02:04:59.813Z,994.7
2023-03-26T02:10:05.908Z,994.7
2023-03-26T02:15:12.082Z,994.7
2023-03-26T02:20:17.106Z,994.7
2023-03-26T02:25:23.217Z,994.7
2023-03-26T02:30:29.325Z,994.7
2023-03-26T02:35:35.397Z,994.7
2023-03-26T02:40:41.512Z,994.5
2023-03-26T02:45:47.596Z,994.5
2023-03-26T02:50:53.690Z,994.6
2023-03-26T02:55:59.788Z,994.6
2023-03-26T03:01:05.872Z,994.4
2023-03-26T03:06:11.983Z,994.4
2023-03-26T03:11:18.081Z,994.2
2023-03-26T03:16:24.180Z,994.3
2023-03-26T03:21:30.258Z,994.4
2023-03-26T03:26:35.384Z,994.3
2023-03-26T03:31:41.468Z,994.3
2023-03-26T03:36:47.583Z,994.1
2023-03-26T03:41:53.686Z,994.2
2023-03-26T03:46:59.758Z,994.2
2023-03-26T03:52:05.869Z,994.1
2023-03-26T03:57:11.955Z,994.1
2023-03-26T04:02:18.058Z,994.1
2023-03-26T04:07:24.187Z,994.2
2023-03-26T04:12:30.263Z,994.4
2023-03-26T04:17:36.353Z,994.4
2023-03-26T04:22:42.449Z,994.5
2023-03-26T04:27:48.552Z,994.4
2023-03-26T04:32:53.659Z,994.4
2023-03-26T04:37:59.735Z,994.3
2023-03-26T04:43:05.831Z,994.3
2023-03-26T04:48:12.043Z,994.3
2023-03-26T04:53:18.040Z,994.4
2023-03-26T04:58:24.123Z,994.3
2023-03-26T05:03:30.241Z,994.4
2023-03-26T05:08:36.362Z,994.3
2023-03-26T05:13:42.442Z,994.3
2023-03-26T05:18:48.524Z,994.3
2023-03-26T05:23:54.619Z,994.3
2023-03-26T05:29:00.712Z,994.3
2023-03-26T05:34:06.794Z,994.3
2023-03-26T05:39:11.909Z,994.2
2023-03-26T05:44:18.021Z,994.2
2023-03-26T05:49:24.111Z,994.2
2023-03-26T05:54:30.278Z,994.1
2023-03-26T05:59:36.298Z,994
2023-03-26T06:04:42.410Z,994
2023-03-26T06:09:48.488Z,993.9
2023-03-26T06:14:54.599Z,993.9
2023-03-26T06:20:00.668Z,994
2023-03-26T06:25:06.771Z,993.9
2023-03-26T06:30:12.858Z,993.8
2023-03-26T06:35:18.966Z,993.9
2023-03-26T06:40:25.052Z,993.9
2023-03-26T06:45:30.205Z,994
2023-03-26T06:50:35.319Z,993.9
2023-03-26T06:55:40.405Z,993.8
2023-03-26T07:00:45.522Z,993.8
2023-03-26T07:05:50.688Z,993.9
2023-03-26T07:10:56.874Z,993.9
2023-03-26T07:16:02.828Z,993.8
2023-03-26T07:21:08.942Z,993.8
2023-03-26T07:26:15.076Z,993.8
2023-03-26T07:31:21.096Z,993.8
2023-03-26T07:36:27.212Z,993.7
2023-03-26T07:41:33.309Z,993.7
2023-03-26T07:46:39.391Z,993.6
2023-03-26T07:51:45.477Z,993.6
2023-03-26T07:56:51.579Z,993.5
2023-03-26T08:01:57.691Z,993.5
2023-03-26T08:07:03.801Z,993.4
2023-03-26T08:12:08.878Z,993.4
2023-03-26T08:17:14.990Z,993.4
2023-03-26T08:22:21.082Z,993.4
2023-03-26T08:27:27.318Z,993.3
2023-03-26T08:32:33.267Z,993.3
2023-03-26T08:37:39.383Z,993.1
2023-03-26T08:42:45.467Z,993.1
2023-03-26T08:47:51.536Z,993.1
2023-03-26T08:52:57.654Z,993
2023-03-26T08:58:03.730Z,993
2023-03-26T09:03:09.835Z,992.9
2023-03-26T09:08:16.011Z,992.9
2023-03-26T09:13:22.023Z,992.8
2023-03-26T09:18:27.120Z,992.8
2023-03-26T09:23:33.245Z,992.8
2023-03-26T09:28:39.330Z,992.7
2023-03-26T09:33:45.432Z,992.8
2023-03-26T09:38:51.517Z,992.7
2023-03-26T09:43:57.600Z,992.7
2023-03-26T09:49:03.720Z,992.6
2023-03-26T09:54:09.796Z,992.6
2023-03-26T09:59:15.896Z,992.5
2023-03-26T10:04:22.000Z,992.4
2023-03-26T10:09:28.164Z,992.3
2023-03-26T10:14:34.188Z,992.1
2023-03-26T10:19:40.268Z,992.1
2023-03-26T10:24:45.399Z,992
2023-03-26T10:29:51.472Z,992
2023-03-26T10:34:57.634Z,992
2023-03-26T10:40:03.665Z,991.9
2023-03-26T10:45:09.768Z,991.8
2023-03-26T10:50:14.873Z,991.8
2023-03-26T10:55:20.968Z,991.8
2023-03-26T11:00:27.130Z,991.9
2023-03-26T11:05:33.164Z,991.8
2023-03-26T11:10:39.272Z,991.8
2023-03-26T11:15:45.415Z,991.8
2023-03-26T11:20:51.514Z,991.8
2023-03-26T11:25:57.521Z,991.7
2023-03-26T11:31:03.810Z,991.7
2023-03-26T11:36:09.713Z,991.6
2023-03-26T11:41:15.841Z,991.6
2023-03-26T11:46:21.910Z,991.5
2023-03-26T11:51:28.011Z,991.5
2023-03-26T11:56:33.103Z,991.6
2023-03-26T12:01:39.206Z,991.5
2023-03-26T12:06:45.310Z,991.4
2023-03-26T12:11:51.394Z,991.4
2023-03-26T12:16:57.493Z,991.4
2023-03-26T12:22:03.635Z,991.2
2023-03-26T12:27:09.668Z,991.3
2023-03-26T12:32:15.802Z,991.3
2023-03-26T12:37:21.870Z,991.3
2023-03-26T12:42:28.046Z,991.2
2023-03-26T12:47:34.071Z,991.2
2023-03-26T12:52:40.148Z,991.2
2023-03-26T12:57:46.344Z,991.2
2023-03-26T13:02:51.373Z,991.2
2023-03-26T13:07:57.459Z,991.2
2023-03-26T13:13:03.567Z,991.3
2023-03-26T13:18:09.646Z,991.3
2023-03-26T13:23:15.756Z,991.3
2023-03-26T13:28:21.858Z,991.3
2023-03-26T13:33:27.942Z,991.2
2023-03-26T13:38:33.064Z,991.1
2023-03-26T13:43:38.193Z,991
2023-03-26T13:48:43.286Z,991.1
2023-03-26T13:53:48.403Z,991.1
2023-03-26T13:58:54.499Z,991
2023-03-26T14:04:00.587Z,991.1
2023-03-26T14:09:06.687Z,991.1
2023-03-26T14:14:12.778Z,991.1
2023-03-26T14:19:19.072Z,991.2
2023-03-26T14:24:24.981Z,991.2
2023-03-26T14:29:31.095Z,991.1
2023-03-26T14:34:37.163Z,991.1
2023-03-26T14:39:43.256Z,991
2023-03-26T14:44:49.362Z,991
2023-03-26T14:49:55.470Z,991
2023-03-26T14:55:01.554Z,991
2023-03-26T15:00:06.662Z,990.9
2023-03-26T15:05:12.749Z,990.9
2023-03-26T15:10:18.858Z,990.9
2023-03-26T15:15:24.949Z,990.9
2023-03-26T15:20:31.060Z,990.9
2023-03-26T15:25:37.157Z,990.9
2023-03-26T15:30:43.313Z,990.9
2023-03-26T15:35:48.370Z,990.8
2023-03-26T15:40:53.471Z,990.8
2023-03-26T15:45:59.593Z,990.8
2023-03-26T15:51:05.654Z,990.7
2023-03-26T15:56:11.749Z,990.7
2023-03-26T16:01:17.833Z,990.8
2023-03-26T16:06:23.941Z,990.7
2023-03-26T16:11:30.028Z,990.8
2023-03-26T16:16:36.214Z,990.6
2023-03-26T16:21:41.293Z,990.7
2023-03-26T16:26:46.346Z,990.7
2023-03-26T16:31:52.436Z,990.7
2023-03-26T16:36:58.555Z,990.7
2023-03-26T16:42:04.655Z,990.6
2023-03-26T16:47:10.721Z,990.7
2023-03-26T16:52:16.838Z,990.6
2023-03-26T16:57:22.933Z,990.7
2023-03-26T17:02:29.024Z,990.7
2023-03-26T17:07:35.113Z,990.7
2023-03-26T17:12:41.213Z,990.8
2023-03-26T17:17:47.345Z,990.8
2023-03-26T17:22:53.413Z,990.8
2023-03-26T17:27:59.502Z,990.9
2023-03-26T17:33:04.605Z,991
2023-03-26T17:38:10.703Z,991
2023-03-26T17:43:16.833Z,991.1
2023-03-26T17:48:22.897Z,991
2023-03-26T17:53:29.002Z,991.1
2023-03-26T17:58:35.092Z,991
2023-03-26T18:03:41.190Z,991.1
2023-03-26T18:08:47.282Z,991.1
2023-03-26T18:13:53.398Z,991.1
2023-03-26T18:18:59.467Z,991.1
2023-03-26T18:24:05.580Z,991.1
2023-03-26T18:29:11.658Z,991.2
2023-03-26T18:34:17.776Z,991.2
2023-03-26T18:39:22.879Z,991.2
2023-03-26T18:44:28.978Z,991.2
2023-03-26T18:49:35.057Z,991.2
2023-03-26T18:54:41.174Z,991.3
2023-03-26T18:59:47.263Z,991.2
2023-03-26T19:04:53.370Z,991.2
2023-03-26T19:09:59.461Z,991.2
2023-03-26T19:15:05.541Z,991.2
2023-03-26T19:20:11.650Z,991.2
2023-03-26T19:25:17.752Z,991.3
2023-03-26T19:30:23.847Z,991.3
2023-03-26T19:35:29.931Z,991.3
2023-03-26T19:40:36.160Z,991.3
2023-03-26T19:45:41.337Z,991.3
2023-03-26T19:50:47.372Z,991.3
2023-03-26T19:55:53.594Z,991.3
2023-03-26T20:00:59.616Z,991.2
2023-03-26T20:06:05.750Z,991.2
2023-03-26T20:11:11.774Z,991.2
2023-03-26T20:16:17.854Z,991.1
2023-03-26T20:21:23.952Z,991.1
2023-03-26T20:26:30.142Z,991.2
2023-03-26T20:31:36.164Z,991.2
2023-03-26T20:36:42.101Z,991.2
2023-03-26T20:41:48.210Z,991.2
2023-03-26T20:46:54.607Z,991.2
2023-03-26T20:51:59.560Z,991.2
2023-03-26T20:57:05.498Z,991.2
2023-03-26T21:02:11.609Z,991.2
2023-03-26T21:07:17.720Z,991.4
2023-03-26T21:12:23.801Z,991.4
2023-03-26T21:17:30.009Z,991.5
2023-03-26T21:22:36.121Z,991.6
2023-03-26T21:27:42.107Z,991.6
2023-03-26T21:32:48.208Z,991.6
2023-03-26T21:37:54.367Z,991.7
2023-03-26T21:43:00.480Z,991.7
2023-03-26T21:48:06.452Z,991.8
2023-03-26T21:53:12.571Z,991.9
2023-03-26T21:58:17.716Z,991.9
2023-03-26T22:03:23.843Z,991.9
2023-03-26T22:08:29.868Z,992
2023-03-26T22:13:35.979Z,992.1
2023-03-26T22:18:42.111Z,992.1
2023-03-26T22:23:48.167Z,992.3
2023-03-26T22:28:54.267Z,992.4
2023-03-26T22:34:00.355Z,992.5
2023-03-26T22:39:06.530Z,992.5
2023-03-26T22:44:12.558Z,992.6
2023-03-26T22:49:18.667Z,992.7
2023-03-26T22:54:24.739Z,992.8
2023-03-26T22:59:30.854Z,992.8
2023-03-26T23:04:35.964Z,992.9
2023-03-26T23:09:42.075Z,993
2023-03-26T23:14:48.152Z,993.2
2023-03-26T23:19:54.251Z,993.3
2023-03-26T23:25:00.352Z,993.4
2023-03-26T23:30:06.437Z,993.5
2023-03-26T23:35:12.539Z,993.5
2023-03-26T23:40:18.642Z,993.6
2023-03-26T23:45:24.730Z,993.7
2023-03-26T23:50:30.822Z,993.8
2023-03-26T23:55:36.928Z,993.9
